Time;durP1;ratioP1;P1;durP2;ratioP2;P2;SDS_P1;SDS_P2;PMS_P1;PMS_P2;Temp;Humidity;BMP_temperature;BMP_pressure;BME280_temperature;BME280_humidity;BME280_pressure;Samples;Min_cycle;Max_cycle;Signal;HPM_P1;HPM_P2
2023/11/19 00:01:01;;;;;;;1.83;1.45;;;8.80;90.70;;;;;;5006524;28;20026;-64
2023/11/19 00:03:28;;;;;;;1.90;1.40;;;8.90;90.70;;;;;;5005942;28;20488;-63
2023/11/19 00:05:53;;;;;;;1.75;1.50;;;8.90;90.80;;;;;;5006460;28;20396;-64
2023/11/19 00:08:19;;;;;;;1.60;1.50;;;8.90;90.80;;;;;;5005537;28;20041;-64
2023/11/19 00:10:46;;;;;;;3.00;1.52;;;8.90;91.20;;;;;;5005864;28;20038;-64
2023/11/19 00:13:12;;;;;;;2.25;1.70;;;8.90;90.80;;;;;;5005745;28;20134;-63
2023/11/19 00:15:38;;;;;;;1.70;1.60;;;8.90;90.90;;;;;;5006293;28;20405;-63
2023/11/19 00:18:04;;;;;;;1.70;1.35;;;8.90;90.90;;;;;;5005602;28;20022;-64
2023/11/19 00:20:30;;;;;;;1.73;1.63;;;8.90;91.00;;;;;;4987672;28;20501;-63
2023/11/19 00:22:56;;;;;;;3.40;1.60;;;8.90;91.00;;;;;;5006039;28;20065;-62
2023/11/19 00:25:21;;;;;;;2.30;1.60;;;8.90;91.00;;;;;;5006042;28;20436;-63
2023/11/19 00:27:47;;;;;;;1.63;1.52;;;8.90;91.00;;;;;;5006095;28;20084;-64
2023/11/19 00:30:13;;;;;;;2.10;1.65;;;8.90;91.00;;;;;;5004585;28;20045;-64
2023/11/19 00:32:40;;;;;;;2.13;1.80;;;9.00;91.10;;;;;;5005264;28;20445;-64
2023/11/19 00:35:07;;;;;;;4.32;1.60;;;9.00;91.10;;;;;;5005865;28;20579;-64
2023/11/19 00:37:32;;;;;;;4.40;1.83;;;9.00;91.10;;;;;;5005559;28;20168;-63
2023/11/19 00:39:58;;;;;;;1.65;1.55;;;9.00;91.20;;;;;;5005731;28;20140;-64
2023/11/19 00:42:24;;;;;;;2.13;1.92;;;9.10;91.10;;;;;;5005975;28;20034;-64
2023/11/19 00:44:50;;;;;;;1.50;1.40;;;9.10;91.10;;;;;;5005122;28;20053;-64
2023/11/19 00:47:16;;;;;;;1.70;1.60;;;9.10;91.10;;;;;;5004673;28;20501;-65
2023/11/19 00:49:42;;;;;;;1.70;1.60;;;9.10;91.10;;;;;;5005753;28;20070;-64
2023/11/19 00:52:08;;;;;;;1.98;1.50;;;9.10;91.20;;;;;;5005273;28;20038;-64
2023/11/19 00:54:33;;;;;;;1.88;1.77;;;9.10;91.10;;;;;;5005515;28;20034;-64
2023/11/19 00:56:59;;;;;;;1.60;1.50;;;9.20;91.20;;;;;;5005613;28;20034;-64
2023/11/19 00:59:24;;;;;;;2.45;1.60;;;9.20;91.20;;;;;;5005148;28;20030;-64
2023/11/19 01:01:53;;;;;;;1.80;1.70;;;9.20;91.20;;;;;;5005590;28;20022;-64
2023/11/19 01:04:18;;;;;;;2.38;2.10;;;9.20;91.20;;;;;;5008234;28;20290;-64
2023/11/19 01:06:44;;;;;;;1.98;1.88;;;9.20;91.30;;;;;;5008950;28;20397;-64
2023/11/19 01:09:10;;;;;;;1.80;1.70;;;9.20;91.40;;;;;;5008990;28;20123;-64
2023/11/19 01:11:36;;;;;;;2.00;1.80;;;9.20;91.40;;;;;;5007445;28;20219;-63
2023/11/19 01:14:02;;;;;;;1.77;1.67;;;9.20;91.40;;;;;;5009376;28;20099;-64
2023/11/19 01:16:28;;;;;;;1.90;1.80;;;9.20;91.40;;;;;;5008607;28;20527;-64
2023/11/19 01:18:54;;;;;;;2.33;2.10;;;9.20;91.50;;;;;;5008440;28;20664;-64
2023/11/19 01:21:19;;;;;;;2.28;2.08;;;9.20;91.50;;;;;;5008876;28;20026;-64
2023/11/19 01:23:45;;;;;;;2.30;2.10;;;9.20;91.50;;;;;;4991025;28;20042;-64
2023/11/19 01:26:14;;;;;;;1.95;1.85;;;9.20;91.50;;;;;;5009192;28;20181;-64
2023/11/19 01:28:42;;;;;;;2.10;1.90;;;9.20;91.50;;;;;;5008087;28;20372;-64
2023/11/19 01:31:08;;;;;;;2.00;1.90;;;9.20;91.50;;;;;;4991262;28;20230;-64
2023/11/19 01:33:35;;;;;;;2.00;1.83;;;9.20;91.50;;;;;;5008698;28;20030;-64
2023/11/19 01:36:01;;;;;;;2.30;1.67;;;9.30;91.60;;;;;;5009049;28;20045;-64
2023/11/19 01:38:27;;;;;;;1.80;1.70;;;9.30;91.60;;;;;;5008118;28;20038;-63
2023/11/19 01:40:58;;;;;;;2.15;1.95;;;9.30;91.70;;;;;;5009364;28;20030;-64
2023/11/19 01:43:36;;;;;;;1.60;1.50;;;9.30;91.80;;;;;;5008425;28;20068;-64
2023/11/19 01:46:05;;;;;;;1.70;1.60;;;9.30;91.90;;;;;;5007519;28;20030;-64
2023/11/19 01:48:34;;;;;;;2.15;1.88;;;9.30;91.80;;;;;;5007905;28;20088;-64
2023/11/19 01:51:01;;;;;;;2.85;2.00;;;9.40;91.90;;;;;;5008521;28;20054;-63
2023/11/19 01:53:29;;;;;;;1.83;1.67;;;9.40;91.90;;;;;;5008615;28;20592;-64
2023/11/19 01:55:55;;;;;;;2.63;1.80;;;9.40;91.90;;;;;;5008513;28;20452;-64
2023/11/19 01:58:22;;;;;;;1.92;1.80;;;9.40;91.90;;;;;;5007457;28;20055;-63
2023/11/19 02:00:48;;;;;;;2.03;1.90;;;9.50;92.00;;;;;;5009350;28;20325;-64
2023/11/19 02:03:14;;;;;;;1.90;1.80;;;9.50;92.00;;;;;;5008963;28;20462;-64
2023/11/19 02:05:40;;;;;;;1.67;1.58;;;9.50;92.00;;;;;;5008907;28;20029;-63
2023/11/19 02:08:06;;;;;;;1.90;1.77;;;9.60;92.00;;;;;;5007394;28;20149;-64
2023/11/19 02:10:32;;;;;;;2.00;1.70;;;9.60;92.10;;;;;;5005770;28;20126;-64
2023/11/19 02:12:58;;;;;;;1.48;1.38;;;9.70;92.10;;;;;;5008522;28;20022;-64
2023/11/19 02:15:24;;;;;;;1.63;1.20;;;9.70;92.10;;;;;;5007178;28;20393;-64
2023/11/19 02:17:50;;;;;;;1.48;1.30;;;9.70;92.10;;;;;;5007561;28;20041;-63
2023/11/19 02:20:17;;;;;;;1.40;1.30;;;9.70;92.10;;;;;;5008125;28;20404;-64
2023/11/19 02:22:44;;;;;;;1.30;1.20;;;9.70;92.10;;;;;;5007631;28;20042;-63
2023/11/19 02:25:32;;;;;;;1.40;1.30;;;9.80;92.20;;;;;;5006169;28;20096;-62
2023/11/19 02:28:02;;;;;;;1.92;1.20;;;9.90;92.50;;;;;;5007765;28;20041;-64
2023/11/19 02:30:28;;;;;;;1.38;1.27;;;9.90;92.30;;;;;;5007623;28;20516;-63
2023/11/19 02:32:58;;;;;;;1.25;1.08;;;9.90;92.20;;;;;;5006181;28;20045;-64
2023/11/19 02:35:25;;;;;;;1.38;1.20;;;9.90;92.30;;;;;;5007605;28;20544;-63
2023/11/19 02:37:51;;;;;;;1.40;1.30;;;10.00;92.30;;;;;;5007657;28;20144;-63
2023/11/19 02:40:17;;;;;;;1.63;1.30;;;9.90;92.20;;;;;;5007514;28;20176;-64
2023/11/19 02:42:43;;;;;;;2.00;1.50;;;10.00;92.20;;;;;;5007106;28;20074;-64
2023/11/19 02:45:13;;;;;;;1.48;1.38;;;10.00;92.20;;;;;;5005869;28;20038;-62
2023/11/19 02:47:43;;;;;;;1.98;1.60;;;10.00;92.20;;;;;;5007123;28;20034;-63
2023/11/19 02:50:14;;;;;;;3.50;1.60;;;10.10;92.20;;;;;;5007031;28;20065;-63
2023/11/19 02:52:46;;;;;;;1.20;1.10;;;10.10;92.30;;;;;;5006714;28;20064;-63
2023/11/19 02:55:12;;;;;;;1.60;1.50;;;10.20;92.30;;;;;;5007362;28;20444;-63
2023/11/19 02:57:45;;;;;;;1.85;1.40;;;10.10;92.20;;;;;;5007095;28;20548;-63
2023/11/19 03:00:18;;;;;;;1.42;1.33;;;10.10;92.20;;;;;;5007075;28;20512;-63
2023/11/19 03:02:46;;;;;;;1.40;1.30;;;10.20;92.30;;;;;;5006832;28;20038;-64
2023/11/19 03:05:16;;;;;;;1.75;1.40;;;10.20;92.30;;;;;;5006931;28;20068;-64
2023/11/19 03:07:43;;;;;;;1.73;1.15;;;10.20;92.30;;;;;;5007282;28;20445;-63
2023/11/19 03:10:12;;;;;;;1.52;1.17;;;10.20;92.30;;;;;;5006921;28;20121;-63
2023/11/19 03:12:39;;;;;;;2.08;1.50;;;10.30;92.30;;;;;;5006742;28;20444;-64
2023/11/19 03:15:05;;;;;;;1.40;1.30;;;10.30;92.40;;;;;;5006696;28;20501;-63
2023/11/19 03:17:31;;;;;;;1.35;1.25;;;10.30;92.40;;;;;;5006860;28;20034;-63
2023/11/19 03:19:56;;;;;;;1.30;1.20;;;10.30;92.30;;;;;;5006850;28;20040;-64
2023/11/19 03:22:22;;;;;;;1.40;1.27;;;10.30;92.40;;;;;;5006901;28;20453;-63
2023/11/19 03:24:51;;;;;;;1.20;1.10;;;10.40;92.40;;;;;;5004488;28;20046;-64
2023/11/19 03:27:16;;;;;;;1.80;1.20;;;10.40;92.40;;;;;;5004814;28;20045;-64
2023/11/19 03:29:42;;;;;;;0.93;0.93;;;10.40;92.40;;;;;;5006891;28;20041;-62
2023/11/19 03:32:07;;;;;;;1.50;1.17;;;10.40;92.30;;;;;;5005898;28;20037;-64
2023/11/19 03:34:33;;;;;;;2.20;1.38;;;10.50;92.40;;;;;;5004939;28;20026;-64
2023/11/19 03:36:59;;;;;;;1.38;1.00;;;10.50;92.40;;;;;;5005652;28;20029;-64
2023/11/19 03:39:25;;;;;;;2.50;1.17;;;10.50;92.30;;;;;;5003625;28;20413;-64
2023/11/19 03:41:50;;;;;;;1.25;1.10;;;10.50;92.30;;;;;;5006618;28;20057;-63
2023/11/19 03:44:16;;;;;;;1.58;1.40;;;10.50;92.30;;;;;;5006017;28;20115;-64
2023/11/19 03:46:42;;;;;;;2.05;1.27;;;10.50;92.30;;;;;;5003821;28;20042;-64
2023/11/19 03:49:08;;;;;;;1.33;1.23;;;10.50;92.30;;;;;;5005599;28;20037;-63
2023/11/19 03:51:34;;;;;;;2.38;1.58;;;10.60;92.30;;;;;;5005401;28;20500;-62
2023/11/19 03:54:00;;;;;;;1.42;1.33;;;10.60;92.30;;;;;;4987888;28;20120;-63
2023/11/19 03:56:27;;;;;;;2.60;1.50;;;10.60;92.30;;;;;;5005711;28;20464;-62
2023/11/19 03:58:52;;;;;;;1.50;1.38;;;10.60;92.30;;;;;;5005400;28;20042;-62
2023/11/19 04:01:18;;;;;;;1.65;1.42;;;10.70;92.30;;;;;;5006458;28;20030;-62
2023/11/19 04:03:44;;;;;;;1.70;1.60;;;10.70;92.30;;;;;;5006218;28;20487;-64
2023/11/19 04:06:09;;;;;;;3.08;1.52;;;10.70;92.30;;;;;;5005999;28;20061;-64
2023/11/19 04:08:35;;;;;;;2.20;1.52;;;10.70;92.30;;;;;;5005027;28;20347;-64
2023/11/19 04:11:03;;;;;;;1.70;1.60;;;10.70;92.30;;;;;;5003745;28;20456;-64
2023/11/19 04:13:28;;;;;;;1.42;1.33;;;10.70;92.20;;;;;;5006442;28;20076;-63
2023/11/19 04:15:54;;;;;;;1.92;1.77;;;10.70;92.20;;;;;;5006287;28;20134;-63
2023/11/19 04:18:19;;;;;;;2.28;1.77;;;10.70;92.20;;;;;;5005671;28;20033;-64
2023/11/19 04:20:45;;;;;;;1.88;1.77;;;10.70;92.20;;;;;;5005857;28;20407;-63
2023/11/19 04:23:11;;;;;;;1.90;1.80;;;10.70;92.20;;;;;;5004899;28;20449;-63
2023/11/19 04:25:37;;;;;;;1.80;1.70;;;10.70;92.20;;;;;;5005006;28;20042;-63
2023/11/19 04:28:02;;;;;;;3.63;1.70;;;10.70;92.10;;;;;;5005103;28;20268;-64
2023/11/19 04:30:28;;;;;;;1.92;1.83;;;10.70;92.10;;;;;;5004405;28;20184;-64
2023/11/19 04:32:54;;;;;;;2.17;1.92;;;10.70;92.10;;;;;;5004906;28;20037;-64
2023/11/19 04:35:20;;;;;;;2.20;2.00;;;10.70;92.10;;;;;;5004676;28;20129;-63
2023/11/19 04:37:47;;;;;;;2.08;1.98;;;10.60;92.00;;;;;;5005243;28;20754;-64
2023/11/19 04:40:13;;;;;;;2.40;2.20;;;10.70;92.10;;;;;;5009126;28;20592;-62
2023/11/19 04:42:41;;;;;;;1.90;1.80;;;10.60;92.10;;;;;;5009416;28;20124;-63
2023/11/19 04:45:10;;;;;;;2.42;2.13;;;10.60;92.00;;;;;;5007840;28;20030;-64
2023/11/19 04:47:38;;;;;;;2.05;1.80;;;10.60;92.10;;;;;;5007994;28;20073;-64
2023/11/19 04:50:05;;;;;;;2.20;1.80;;;10.60;92.10;;;;;;5008817;28;20064;-63
2023/11/19 04:52:30;;;;;;;2.53;2.00;;;10.60;92.10;;;;;;5008507;28;20038;-64
2023/11/19 04:54:56;;;;;;;1.98;1.88;;;10.60;92.10;;;;;;5007725;28;20038;-63
2023/11/19 04:57:21;;;;;;;2.42;2.10;;;10.60;92.10;;;;;;5009032;28;20046;-63
2023/11/19 04:59:47;;;;;;;2.63;1.92;;;10.60;92.10;;;;;;5008369;28;20099;-64
2023/11/19 05:02:12;;;;;;;2.03;1.77;;;10.60;92.10;;;;;;5008298;28;20064;-63
2023/11/19 05:04:44;;;;;;;1.95;1.80;;;10.60;92.10;;;;;;5007451;28;20275;-64
2023/11/19 05:07:09;;;;;;;2.35;2.15;;;10.60;92.50;;;;;;5007864;28;20030;-63
2023/11/19 05:09:35;;;;;;;2.20;2.00;;;10.60;92.10;;;;;;5008340;28;20406;-64
2023/11/19 05:12:02;;;;;;;2.10;2.00;;;10.60;92.10;;;;;;5006792;28;20034;-64
2023/11/19 05:14:28;;;;;;;2.40;2.17;;;10.60;92.10;;;;;;5007407;28;20461;-63
2023/11/19 05:16:53;;;;;;;2.35;2.10;;;10.60;92.10;;;;;;5008495;28;20065;-64
2023/11/19 05:19:19;;;;;;;2.20;2.00;;;10.60;92.20;;;;;;5008163;28;20037;-64
2023/11/19 05:21:45;;;;;;;1.90;1.80;;;10.60;92.20;;;;;;5008341;28;20042;-64
2023/11/19 05:24:11;;;;;;;1.88;1.77;;;10.60;92.20;;;;;;5008785;28;20038;-63
2023/11/19 05:26:37;;;;;;;1.80;1.70;;;10.70;92.30;;;;;;5007356;28;20048;-63
2023/11/19 05:29:04;;;;;;;1.90;1.80;;;10.70;92.20;;;;;;5008193;28;20022;-64
2023/11/19 05:31:30;;;;;;;2.08;1.88;;;10.70;92.30;;;;;;5007575;28;20034;-63
2023/11/19 05:33:55;;;;;;;2.25;2.08;;;10.70;92.30;;;;;;5007908;28;20052;-64
2023/11/19 05:36:21;;;;;;;1.95;1.75;;;10.70;92.30;;;;;;5008124;28;20753;-63
2023/11/19 05:38:47;;;;;;;1.90;1.80;;;10.70;92.30;;;;;;5007033;28;20046;-63
2023/11/19 05:41:12;;;;;;;2.00;1.80;;;10.70;92.30;;;;;;5008075;28;20088;-64
2023/11/19 05:43:40;;;;;;;1.67;1.58;;;10.80;92.40;;;;;;5007396;28;20070;-64
2023/11/19 05:46:06;;;;;;;1.83;1.67;;;10.80;92.40;;;;;;5006908;28;20030;-64
2023/11/19 05:48:32;;;;;;;1.80;1.70;;;10.80;92.40;;;;;;5006883;28;20044;-64
2023/11/19 05:50:58;;;;;;;1.67;1.58;;;10.80;92.40;;;;;;5007364;28;20061;-64
2023/11/19 05:53:24;;;;;;;1.50;1.40;;;10.80;92.40;;;;;;5007677;28;20054;-64
2023/11/19 05:55:55;;;;;;;1.58;1.48;;;10.80;92.30;;;;;;5006652;28;20034;-64
2023/11/19 05:58:28;;;;;;;1.52;1.42;;;10.90;92.30;;;;;;5007316;28;20164;-64
2023/11/19 06:00:57;;;;;;;1.63;1.52;;;10.90;92.40;;;;;;5007233;28;20548;-64
2023/11/19 06:03:23;;;;;;;2.33;1.48;;;11.00;92.40;;;;;;5007021;28;20045;-64
2023/11/19 06:05:49;;;;;;;1.42;1.33;;;11.00;92.40;;;;;;5008644;28;20041;-64
2023/11/19 06:08:16;;;;;;;1.40;1.30;;;11.00;92.40;;;;;;5007516;28;20150;-64
2023/11/19 06:10:42;;;;;;;1.40;1.30;;;11.00;92.40;;;;;;5006518;28;20544;-64
2023/11/19 06:13:10;;;;;;;1.40;1.30;;;11.00;92.40;;;;;;5006672;28;20504;-64
2023/11/19 06:15:36;;;;;;;1.35;1.25;;;11.00;92.50;;;;;;5007547;28;20437;-64
2023/11/19 06:18:03;;;;;;;1.42;1.33;;;11.10;92.50;;;;;;5007269;28;20041;-64
2023/11/19 06:20:29;;;;;;;1.42;1.33;;;11.10;92.50;;;;;;5007114;28;20030;-63
2023/11/19 06:22:56;;;;;;;1.60;1.50;;;11.10;92.50;;;;;;5007725;28;20092;-64
2023/11/19 06:25:23;;;;;;;1.83;1.40;;;11.10;92.50;;;;;;5007495;28;20082;-65
2023/11/19 06:27:49;;;;;;;1.50;1.40;;;11.10;92.50;;;;;;5006802;28;20466;-64
2023/11/19 06:30:15;;;;;;;1.30;1.20;;;11.20;92.60;;;;;;5007348;28;20539;-64
2023/11/19 06:32:41;;;;;;;1.40;1.30;;;11.10;92.60;;;;;;5006367;28;20049;-64
2023/11/19 06:35:07;;;;;;;1.15;1.13;;;11.20;92.60;;;;;;5006976;28;20038;-64
2023/11/19 06:37:33;;;;;;;1.00;1.00;;;11.20;92.60;;;;;;5006496;28;20107;-64
2023/11/19 06:39:59;;;;;;;1.13;1.02;;;11.20;92.60;;;;;;5006362;28;20497;-64
2023/11/19 06:42:24;;;;;;;0.90;0.90;;;11.20;92.60;;;;;;5005853;28;20028;-64
2023/11/19 06:44:51;;;;;;;0.90;0.90;;;11.30;92.60;;;;;;5006663;28;20041;-64
2023/11/19 06:47:17;;;;;;;0.82;0.82;;;11.30;92.60;;;;;;5005337;28;20384;-65
2023/11/19 06:49:44;;;;;;;1.00;0.82;;;11.30;93.00;;;;;;5006246;28;20042;-64
2023/11/19 06:52:10;;;;;;;1.08;1.02;;;11.40;92.70;;;;;;5006342;28;20038;-64
2023/11/19 06:54:36;;;;;;;1.10;1.00;;;11.40;92.60;;;;;;5006010;28;20748;-64
2023/11/19 06:57:02;;;;;;;1.00;0.90;;;11.40;92.60;;;;;;5005689;28;20286;-65
2023/11/19 06:59:29;;;;;;;1.13;1.02;;;11.40;92.60;;;;;;5006644;28;20044;-64
2023/11/19 07:01:55;;;;;;;1.95;1.15;;;11.40;92.60;;;;;;5005771;28;20033;-64
2023/11/19 07:04:21;;;;;;;1.10;1.10;;;11.50;92.50;;;;;;5006733;28;20034;-63
2023/11/19 07:06:53;;;;;;;1.88;1.67;;;11.50;92.50;;;;;;5006195;28;20121;-64
2023/11/19 07:09:18;;;;;;;2.20;2.00;;;11.50;92.40;;;;;;5005993;28;20406;-65
2023/11/19 07:11:45;;;;;;;1.55;1.45;;;11.50;92.40;;;;;;5006685;28;20037;-65
2023/11/19 07:14:12;;;;;;;1.60;1.50;;;11.50;92.40;;;;;;5005661;28;20476;-65
2023/11/19 07:16:38;;;;;;;1.98;1.60;;;11.50;92.40;;;;;;5005499;28;20038;-64
2023/11/19 07:19:05;;;;;;;1.40;1.30;;;11.50;92.40;;;;;;5004861;28;20149;-65
2023/11/19 07:21:32;;;;;;;1.52;1.42;;;11.50;92.40;;;;;;4987919;28;20036;-65
2023/11/19 07:23:58;;;;;;;2.20;2.00;;;11.50;92.40;;;;;;5006463;28;20057;-64
2023/11/19 07:26:23;;;;;;;1.30;1.20;;;11.50;92.50;;;;;;5005771;28;20163;-64
2023/11/19 07:28:50;;;;;;;1.23;1.13;;;11.50;92.50;;;;;;5004839;28;20053;-64
2023/11/19 07:31:16;;;;;;;1.23;1.13;;;11.50;92.50;;;;;;5006692;28;20037;-64
2023/11/19 07:33:42;;;;;;;1.10;1.10;;;11.50;92.50;;;;;;5006658;28;20034;-64
2023/11/19 07:36:09;;;;;;;1.30;1.20;;;11.50;92.50;;;;;;5006344;28;20038;-64
2023/11/19 07:38:34;;;;;;;1.27;1.17;;;11.60;92.50;;;;;;5005510;28;20037;-64
2023/11/19 07:41:00;;;;;;;1.00;1.00;;;11.60;92.60;;;;;;5006975;28;20025;-64
2023/11/19 07:43:26;;;;;;;1.08;0.98;;;11.60;92.60;;;;;;5005773;28;20041;-64
2023/11/19 07:45:52;;;;;;;1.15;1.05;;;11.70;92.60;;;;;;5004923;28;20457;-65
2023/11/19 07:48:22;;;;;;;0.90;0.90;;;11.70;92.60;;;;;;5005388;28;20030;-65
2023/11/19 07:50:50;;;;;;;1.35;1.25;;;11.60;92.60;;;;;;5004564;28;20265;-64
2023/11/19 07:53:16;;;;;;;1.27;1.17;;;11.70;92.60;;;;;;5005560;28;20037;-65
2023/11/19 07:55:41;;;;;;;1.50;1.20;;;11.70;92.50;;;;;;5006085;28;20064;-65
2023/11/19 07:58:07;;;;;;;1.42;1.33;;;11.70;92.50;;;;;;5005958;28;20447;-65
2023/11/19 08:00:33;;;;;;;1.63;1.33;;;11.70;92.50;;;;;;5004912;28;20604;-65
2023/11/19 08:02:58;;;;;;;1.60;1.50;;;11.70;92.50;;;;;;5004361;28;20034;-65
2023/11/19 08:05:26;;;;;;;1.55;1.45;;;11.70;92.50;;;;;;5006099;28;20042;-65
2023/11/19 08:07:53;;;;;;;1.80;1.50;;;11.70;92.50;;;;;;5006057;28;20592;-65
2023/11/19 08:10:19;;;;;;;1.60;1.50;;;11.80;92.50;;;;;;5007051;28;20048;-65
2023/11/19 08:12:45;;;;;;;1.73;1.63;;;11.70;92.50;;;;;;5005206;28;20383;-65
2023/11/19 08:15:10;;;;;;;1.80;1.70;;;11.70;92.50;;;;;;5006575;28;20037;-64
2023/11/19 08:17:37;;;;;;;1.73;1.63;;;11.70;92.60;;;;;;5006779;28;20515;-65
2023/11/19 08:20:04;;;;;;;1.80;1.70;;;11.70;92.60;;;;;;5006806;28;20038;-64
2023/11/19 08:22:30;;;;;;;1.70;1.60;;;11.70;92.60;;;;;;5005771;28;20561;-65
2023/11/19 08:24:56;;;;;;;1.50;1.40;;;11.70;92.70;;;;;;5007396;28;20053;-65
2023/11/19 08:27:26;;;;;;;1.70;1.60;;;11.70;92.70;;;;;;5006394;28;20030;-65
2023/11/19 08:29:55;;;;;;;1.40;1.30;;;11.70;92.70;;;;;;5006546;28;20564;-65
2023/11/19 08:32:21;;;;;;;1.63;1.52;;;11.80;92.80;;;;;;5005751;28;20044;-65
2023/11/19 08:34:46;;;;;;;1.38;1.27;;;11.80;92.90;;;;;;5006620;28;20042;-65
2023/11/19 08:37:12;;;;;;;1.45;1.15;;;11.80;92.90;;;;;;5006237;28;20038;-65
2023/11/19 08:39:38;;;;;;;1.00;1.00;;;11.80;93.00;;;;;;5006069;28;20038;-65
2023/11/19 08:42:04;;;;;;;0.70;0.70;;;11.90;93.10;;;;;;5006580;28;20046;-65
2023/11/19 08:44:30;;;;;;;0.85;0.85;;;11.90;93.20;;;;;;5005362;28;20580;-65
2023/11/19 08:46:55;;;;;;;0.82;0.82;;;11.90;93.20;;;;;;5004868;28;20030;-65
2023/11/19 08:49:21;;;;;;;1.00;0.55;;;12.00;93.20;;;;;;5006111;28;20129;-65
2023/11/19 08:51:46;;;;;;;0.77;0.68;;;12.00;93.20;;;;;;5006684;28;20041;-64
2023/11/19 08:54:12;;;;;;;0.70;0.70;;;12.10;93.20;;;;;;5006345;28;20409;-65
2023/11/19 08:56:39;;;;;;;1.40;1.08;;;12.10;93.20;;;;;;5006189;28;20034;-65
2023/11/19 08:59:05;;;;;;;1.52;1.23;;;12.20;93.20;;;;;;5005794;28;20589;-65
2023/11/19 09:01:30;;;;;;;0.60;0.60;;;12.20;93.20;;;;;;5005816;28;20095;-65
2023/11/19 09:03:57;;;;;;;0.75;0.50;;;12.30;93.20;;;;;;4982665;28;20509;-65
2023/11/19 09:06:23;;;;;;;0.77;0.73;;;12.30;93.20;;;;;;5006143;28;20564;-65
2023/11/19 09:08:48;;;;;;;2.25;0.85;;;12.40;93.20;;;;;;5004773;28;20101;-65
2023/11/19 09:11:14;;;;;;;0.63;0.50;;;12.40;93.10;;;;;;5005672;28;20076;-65
2023/11/19 09:13:39;;;;;;;0.40;0.40;;;12.50;93.10;;;;;;5005783;28;20604;-65
2023/11/19 09:16:05;;;;;;;0.50;0.50;;;12.50;93.10;;;;;;5006402;28;20034;-65
2023/11/19 09:18:32;;;;;;;0.50;0.50;;;12.50;93.10;;;;;;5005205;28;20382;-65
2023/11/19 09:20:58;;;;;;;0.32;0.30;;;12.60;93.10;;;;;;5005237;28;20038;-65
2023/11/19 09:23:25;;;;;;;0.73;0.50;;;12.60;93.10;;;;;;5004733;28;20567;-65
2023/11/19 09:25:50;;;;;;;0.80;0.60;;;12.60;93.10;;;;;;5007690;28;20064;-65
2023/11/19 09:28:16;;;;;;;0.60;0.60;;;12.70;93.10;;;;;;5007721;28;20034;-64
2023/11/19 09:30:41;;;;;;;0.40;0.40;;;12.70;93.00;;;;;;5008051;28;20418;-65
2023/11/19 09:33:07;;;;;;;0.40;0.40;;;12.80;93.00;;;;;;5007645;28;20120;-65
2023/11/19 09:35:33;;;;;;;0.63;0.50;;;12.80;93.00;;;;;;5007975;28;20417;-65
2023/11/19 09:37:59;;;;;;;0.63;0.40;;;12.80;93.00;;;;;;5007112;28;20038;-65
2023/11/19 09:40:25;;;;;;;0.45;0.43;;;12.80;93.00;;;;;;5007467;28;20453;-64
2023/11/19 09:42:50;;;;;;;0.85;0.30;;;12.90;93.00;;;;;;5007900;28;20096;-65
2023/11/19 09:45:19;;;;;;;0.55;0.45;;;12.90;93.00;;;;;;5006810;28;20038;-65
2023/11/19 09:47:46;;;;;;;1.08;0.50;;;13.00;93.10;;;;;;5007432;28;20049;-63
2023/11/19 09:50:19;;;;;;;0.63;0.40;;;13.10;93.00;;;;;;5009030;28;20105;-64
2023/11/19 09:52:46;;;;;;;0.68;0.30;;;13.10;93.00;;;;;;5008641;28;20100;-64
2023/11/19 09:55:12;;;;;;;0.30;0.30;;;13.10;92.90;;;;;;5008905;28;20037;-64
2023/11/19 09:57:41;;;;;;;0.70;0.50;;;13.20;92.90;;;;;;5008660;28;20042;-64
2023/11/19 10:00:10;;;;;;;0.40;0.40;;;13.20;92.80;;;;;;5007736;28;20472;-64
2023/11/19 10:02:37;;;;;;;0.70;0.50;;;13.30;92.80;;;;;;5007707;28;20034;-64
2023/11/19 10:05:07;;;;;;;0.30;0.30;;;13.30;92.80;;;;;;5008563;28;20042;-64
2023/11/19 10:07:34;;;;;;;0.60;0.40;;;13.30;92.70;;;;;;5008978;28;20044;-64
2023/11/19 10:10:01;;;;;;;0.98;0.38;;;13.40;92.70;;;;;;5008777;28;20041;-64
2023/11/19 10:12:28;;;;;;;0.63;0.40;;;13.40;92.70;;;;;;5005853;28;20042;-64
2023/11/19 10:14:57;;;;;;;1.35;1.05;;;13.40;92.70;;;;;;5008853;28;20084;-65
2023/11/19 10:17:33;;;;;;;0.60;0.60;;;13.40;92.70;;;;;;5009216;28;20038;-64
2023/11/19 10:19:59;;;;;;;1.17;1.08;;;13.40;92.60;;;;;;5008465;28;20113;-65
2023/11/19 10:22:26;;;;;;;0.50;0.40;;;13.50;92.60;;;;;;5007750;28;20164;-64
2023/11/19 10:24:52;;;;;;;1.20;0.32;;;13.50;92.60;;;;;;5008083;28;20030;-64
2023/11/19 10:27:18;;;;;;;0.20;0.20;;;13.50;92.60;;;;;;5007480;28;20034;-64
2023/11/19 10:29:47;;;;;;;0.40;0.30;;;13.60;92.60;;;;;;5008748;28;20042;-65
2023/11/19 10:32:14;;;;;;;0.20;0.20;;;13.60;92.60;;;;;;5007606;28;20469;-64
2023/11/19 10:34:41;;;;;;;0.43;0.38;;;13.60;92.60;;;;;;5007613;28;20049;-64
2023/11/19 10:37:07;;;;;;;0.22;0.22;;;13.60;92.50;;;;;;5007105;28;20026;-64
2023/11/19 10:39:55;;;;;;;0.25;0.20;;;13.70;92.60;;;;;;5007293;28;20030;-64
2023/11/19 10:42:20;;;;;;;0.43;0.43;;;13.80;92.70;;;;;;5008323;28;20038;-64
2023/11/19 10:44:46;;;;;;;0.40;0.30;;;13.80;92.60;;;;;;5007490;28;20520;-64
2023/11/19 10:47:14;;;;;;;0.95;0.30;;;13.80;92.60;;;;;;5006642;28;20386;-65
2023/11/19 10:49:40;;;;;;;0.20;0.20;;;13.90;92.60;;;;;;5008063;28;20034;-65
2023/11/19 10:52:08;;;;;;;1.67;0.30;;;13.90;92.60;;;;;;5007926;28;20061;-64
2023/11/19 10:54:34;;;;;;;0.77;0.30;;;14.00;92.60;;;;;;5006768;28;20046;-64
2023/11/19 10:57:02;;;;;;;0.88;0.20;;;14.10;92.60;;;;;;5007888;28;20064;-64
2023/11/19 10:59:31;;;;;;;0.20;0.20;;;14.10;92.60;;;;;;5007495;28;20030;-64
2023/11/19 11:01:56;;;;;;;0.90;0.22;;;14.20;92.50;;;;;;5007450;28;20033;-64
2023/11/19 11:04:28;;;;;;;0.50;0.20;;;14.30;92.40;;;;;;5007653;28;20038;-65
2023/11/19 11:06:56;;;;;;;0.20;0.20;;;14.40;92.20;;;;;;5008085;28;20073;-65
2023/11/19 11:09:23;;;;;;;0.40;0.30;;;14.40;92.10;;;;;;5007196;28;20513;-65
2023/11/19 11:11:51;;;;;;;0.17;0.17;;;14.40;92.10;;;;;;5005933;28;20421;-65
2023/11/19 11:14:20;;;;;;;0.40;0.20;;;14.50;92.00;;;;;;5007894;28;20034;-65
2023/11/19 11:16:48;;;;;;;0.10;0.10;;;14.50;91.90;;;;;;5006488;28;20072;-65
2023/11/19 11:19:15;;;;;;;0.30;0.30;;;14.50;91.90;;;;;;5003334;28;20046;-65
2023/11/19 11:21:46;;;;;;;0.32;0.28;;;14.60;91.90;;;;;;5007519;28;20592;-65
2023/11/19 11:24:32;;;;;;;0.28;0.10;;;14.60;91.90;;;;;;5007527;28;20084;-65
2023/11/19 11:27:06;;;;;;;0.30;0.30;;;14.60;91.60;;;;;;5006461;28;20037;-65
2023/11/19 11:30:07;;;;;;;0.60;0.28;;;14.60;91.60;;;;;;5006700;28;20041;-64
2023/11/19 11:33:02;;;;;;;0.20;0.20;;;14.70;91.40;;;;;;4946030;28;20065;-64
2023/11/19 11:35:51;;;;;;;0.20;0.20;;;14.70;91.20;;;;;;5007069;28;20493;-64
2023/11/19 11:38:22;;;;;;;0.20;0.20;;;14.80;91.20;;;;;;5007446;28;20504;-64
2023/11/19 11:41:18;;;;;;;0.82;0.57;;;14.70;91.20;;;;;;5006833;28;20109;-64
2023/11/19 11:43:58;;;;;;;0.80;0.80;;;14.70;91.00;;;;;;5007404;28;20060;-65
2023/11/19 11:46:56;;;;;;;0.40;0.40;;;14.70;91.20;;;;;;5005295;28;20042;-61
2023/11/19 11:49:26;;;;;;;1.88;0.20;;;14.70;91.20;;;;;;5001028;28;20030;-64
2023/11/19 11:51:59;;;;;;;0.38;0.20;;;14.80;91.20;;;;;;5006594;28;20045;-65
2023/11/19 11:54:29;;;;;;;0.20;0.20;;;14.80;91.20;;;;;;5006288;28;20523;-65
2023/11/19 11:57:01;;;;;;;0.70;0.15;;;14.80;91.20;;;;;;5007538;28;20077;-64
2023/11/19 11:59:52;;;;;;;0.10;0.10;;;14.80;91.10;;;;;;5006075;28;20034;-64
2023/11/19 12:02:22;;;;;;;0.40;0.20;;;14.90;91.10;;;;;;5005685;28;20034;-65
2023/11/19 12:04:50;;;;;;;0.35;0.20;;;14.90;91.10;;;;;;5005873;28;20081;-64
2023/11/19 12:07:19;;;;;;;0.20;0.20;;;14.90;91.00;;;;;;5006687;28;20520;-65
2023/11/19 12:09:53;;;;;;;0.30;0.30;;;15.00;90.90;;;;;;5006802;28;20053;-65
2023/11/19 12:12:23;;;;;;;0.43;0.20;;;15.00;90.90;;;;;;5004927;28;20054;-65
2023/11/19 12:15:05;;;;;;;0.20;0.20;;;15.00;90.80;;;;;;4989785;28;20485;-65
2023/11/19 12:17:34;;;;;;;0.95;0.50;;;15.10;90.60;;;;;;5006398;28;20087;-64
2023/11/19 12:20:06;;;;;;;0.20;0.20;;;15.10;90.80;;;;;;5006604;28;20072;-65
2023/11/19 12:22:31;;;;;;;0.30;0.22;;;15.10;90.80;;;;;;5006153;28;20049;-65
2023/11/19 12:24:57;;;;;;;0.17;0.17;;;15.10;90.80;;;;;;5006857;28;20033;-65
2023/11/19 12:27:23;;;;;;;0.50;0.20;;;15.20;90.80;;;;;;5006169;28;20072;-64
2023/11/19 12:29:49;;;;;;;1.13;0.47;;;15.20;90.80;;;;;;5007250;28;20061;-64
2023/11/19 12:32:15;;;;;;;0.40;0.20;;;15.30;90.70;;;;;;5005492;28;20034;-64
2023/11/19 12:34:41;;;;;;;0.20;0.20;;;15.30;90.60;;;;;;5006319;28;20079;-64
2023/11/19 12:37:08;;;;;;;0.52;0.40;;;15.30;90.60;;;;;;5005889;28;20034;-65
2023/11/19 12:39:34;;;;;;;0.52;0.20;;;15.40;90.50;;;;;;5006171;28;20079;-64
2023/11/19 12:41:59;;;;;;;0.52;0.10;;;15.40;90.50;;;;;;5006661;28;20033;-64
2023/11/19 12:44:25;;;;;;;0.43;0.30;;;15.40;90.40;;;;;;5005609;28;20041;-65
2023/11/19 12:47:03;;;;;;;0.30;0.30;;;15.50;90.40;;;;;;5005031;28;20049;-64
2023/11/19 12:49:29;;;;;;;0.55;0.13;;;15.50;90.00;;;;;;5006427;28;20029;-64